Terminal Aerodrome Forecast
Issued by NWS Quad Cities IA IL

Home | Current Version | Previous Version | Text Only | Print | Product List | Glossary On
Versions: 1 2 3 4 5 6 7 8 9 10 11 12 13 14 15 16 17 18
000
FTUS43 KDVN 281100
TAFMLI
TAF
KMLI 281122Z 2812/2912 14007KT P6SM OVC010
     FM281230 16012KT P6SM SCT010 SCT015
     FM281600 16015G23KT P6SM SCT030 SCT100
     FM290100 17012KT 6SM BR SCT015 BKN100
     FM290800 17012KT 6SM BR OVC030=

USA.gov is the U.S. government's official web portal to all federal, state and local government web resources and services.